Time;durP1;ratioP1;P1;durP2;ratioP2;P2;SDS_P1;SDS_P2;PMS_P1;PMS_P2;Temp;Humidity;BMP_temperature;BMP_pressure;BME280_temperature;BME280_humidity;BME280_pressure;Samples;Min_cycle;Max_cycle;Signal;HPM_P1;HPM_P2
2022/06/08 00:02:41;;;;;;;3.80;3.10;;;15.70;99.90;;;;;;4985255;28;20199;-72
2022/06/08 00:05:26;;;;;;;6.27;3.77;;;15.70;99.90;;;;;;5005745;28;20223;-72
2022/06/08 00:08:10;;;;;;;4.83;3.10;;;15.70;99.90;;;;;;5003371;28;20260;-72
2022/06/08 00:10:55;;;;;;;9.63;3.30;;;15.60;99.90;;;;;;5004961;28;20196;-72
2022/06/08 00:13:40;;;;;;;4.40;3.10;;;15.70;99.90;;;;;;4993865;28;20215;-72
2022/06/08 00:16:25;;;;;;;4.23;3.00;;;15.50;99.90;;;;;;5002743;28;20279;-73
2022/06/08 00:19:09;;;;;;;3.77;3.20;;;15.40;99.90;;;;;;4998306;28;20192;-74
2022/06/08 00:21:53;;;;;;;5.17;2.90;;;15.40;99.90;;;;;;4988157;28;20559;-73
2022/06/08 00:24:38;;;;;;;4.40;2.90;;;15.30;99.90;;;;;;5000203;28;20212;-73
2022/06/08 00:27:22;;;;;;;4.93;2.63;;;15.30;99.90;;;;;;5006562;28;20228;-72
2022/06/08 00:30:08;;;;;;;4.43;2.70;;;15.30;99.90;;;;;;5001656;28;20495;-73
2022/06/08 00:32:52;;;;;;;3.00;2.50;;;15.20;99.90;;;;;;5008551;28;20269;-72
2022/06/08 00:35:37;;;;;;;3.23;2.40;;;15.10;99.90;;;;;;5007837;28;20214;-72
2022/06/08 00:38:21;;;;;;;3.27;2.47;;;15.00;99.90;;;;;;5007224;28;20249;-73
2022/06/08 00:41:33;;;;;;;3.53;2.50;;;14.90;99.90;;;;;;4991743;28;20195;-72
2022/06/08 00:44:33;;;;;;;3.93;2.43;;;14.90;99.90;;;;;;5005697;28;20678;-72
2022/06/08 00:47:24;;;;;;;4.67;2.40;;;14.70;99.90;;;;;;5007748;28;20187;-72
2022/06/08 00:50:31;;;;;;;3.10;2.50;;;14.60;99.90;;;;;;5003234;28;20207;-72
2022/06/08 00:53:19;;;;;;;2.40;2.03;;;14.60;99.90;;;;;;5007586;28;20312;-72
2022/06/08 00:56:06;;;;;;;2.37;2.13;;;14.70;99.90;;;;;;5000904;28;20576;-73
2022/06/08 00:58:51;;;;;;;4.80;2.30;;;14.70;99.90;;;;;;5004919;28;20246;-73
2022/06/08 01:01:36;;;;;;;2.20;1.90;;;14.50;99.90;;;;;;5008552;28;20202;-72
2022/06/08 01:04:20;;;;;;;2.50;1.90;;;14.30;99.90;;;;;;5010753;28;20191;-73
2022/06/08 01:07:05;;;;;;;11.03;2.70;;;14.20;99.90;;;;;;5007240;28;20280;-72
2022/06/08 01:09:50;;;;;;;3.20;2.40;;;14.40;99.90;;;;;;5010592;28;20217;-72
2022/06/08 05:20:57;;;;;;;4.30;2.50;;;16.20;99.90;;;;;;5746199;23;20234;-73
2022/06/08 05:23:43;;;;;;;4.43;2.60;;;16.40;99.90;;;;;;4944303;28;20727;-73
2022/06/08 05:26:27;;;;;;;4.70;2.80;;;16.50;99.90;;;;;;4931315;29;20581;-75
2022/06/08 05:29:11;;;;;;;4.53;2.97;;;16.60;99.90;;;;;;4930069;29;20193;-74
2022/06/08 05:31:56;;;;;;;3.90;2.60;;;16.70;99.90;;;;;;4942679;28;20221;-73
2022/06/08 05:34:40;;;;;;;3.17;2.60;;;17.10;99.90;;;;;;4949327;28;20216;-74
2022/06/08 05:37:24;;;;;;;3.83;2.50;;;17.50;99.90;;;;;;4954270;28;20574;-74
2022/06/08 05:40:09;;;;;;;4.00;2.77;;;18.00;99.90;;;;;;4949159;28;20608;-74
2022/06/08 05:42:54;;;;;;;5.57;2.80;;;18.30;99.90;;;;;;4948054;28;20270;-74
2022/06/08 05:45:40;;;;;;;3.33;2.63;;;18.30;99.90;;;;;;4952071;28;20289;-74
2022/06/08 05:48:24;;;;;;;5.47;3.07;;;18.60;99.90;;;;;;4952805;28;20269;-74
2022/06/08 05:51:08;;;;;;;5.43;3.03;;;18.80;99.90;;;;;;4950662;28;20297;-74
2022/06/08 05:53:52;;;;;;;4.40;3.30;;;18.90;99.90;;;;;;4951958;28;20225;-73
2022/06/08 05:56:36;;;;;;;6.70;2.80;;;19.00;99.90;;;;;;4951628;28;20193;-75
2022/06/08 05:59:21;;;;;;;4.13;3.03;;;19.40;99.90;;;;;;4951254;28;20217;-76
2022/06/08 06:02:07;;;;;;;5.93;3.10;;;19.70;99.90;;;;;;4938799;28;20209;-75
2022/06/08 06:04:51;;;;;;;6.20;2.40;;;20.00;99.90;;;;;;4944352;28;20289;-75
2022/06/08 06:07:36;;;;;;;6.00;2.70;;;20.20;99.90;;;;;;4946888;28;20197;-76
2022/06/08 06:10:21;;;;;;;4.28;2.83;;;20.20;99.90;;;;;;4947141;28;20269;-73
2022/06/08 06:13:05;;;;;;;3.53;2.35;;;20.20;99.90;;;;;;4944810;28;20220;-75
2022/06/08 06:15:49;;;;;;;5.10;2.63;;;19.70;99.90;;;;;;4950506;28;20777;-74
2022/06/08 06:18:34;;;;;;;2.90;1.92;;;19.80;99.90;;;;;;4947350;28;20743;-74
2022/06/08 06:21:20;;;;;;;3.93;2.10;;;20.20;99.90;;;;;;4942550;28;20238;-76
2022/06/08 06:24:06;;;;;;;5.07;2.22;;;20.50;99.90;;;;;;4942868;28;20193;-74
2022/06/08 06:26:52;;;;;;;2.08;1.63;;;20.70;99.90;;;;;;4942338;28;20194;-76
2022/06/08 06:29:36;;;;;;;2.20;1.75;;;21.10;99.90;;;;;;4948503;28;20525;-74
2022/06/08 06:32:29;;;;;;;2.00;1.63;;;21.50;99.90;;;;;;4947497;28;20732;-74
2022/06/08 06:35:25;;;;;;;2.45;1.35;;;21.70;99.90;;;;;;4947410;28;20193;-74
2022/06/08 06:38:10;;;;;;;3.80;2.00;;;21.80;99.90;;;;;;4942115;28;20303;-74
2022/06/08 06:40:54;;;;;;;4.22;2.50;;;21.90;99.90;;;;;;4942018;28;20283;-74
2022/06/08 06:43:38;;;;;;;5.90;2.80;;;21.80;99.90;;;;;;4943349;28;20683;-74
2022/06/08 06:46:23;;;;;;;3.28;2.10;;;21.80;99.90;;;;;;4946911;28;20903;-74
2022/06/08 06:49:07;;;;;;;3.35;2.30;;;22.00;99.90;;;;;;4944630;28;20554;-75
2022/06/08 06:51:53;;;;;;;2.78;2.08;;;22.10;99.90;;;;;;4949375;28;20217;-76
2022/06/08 06:54:39;;;;;;;5.47;2.47;;;22.30;99.90;;;;;;4943559;28;20704;-74
2022/06/08 06:57:23;;;;;;;3.22;2.10;;;22.40;99.90;;;;;;4942165;28;20194;-75
2022/06/08 07:00:08;;;;;;;4.68;2.67;;;22.10;99.90;;;;;;4942044;28;20266;-75
2022/06/08 07:02:53;;;;;;;4.32;2.70;;;22.30;99.90;;;;;;4945480;28;20194;-75
2022/06/08 07:05:37;;;;;;;4.53;2.58;;;22.40;99.90;;;;;;4940770;28;20194;-74
2022/06/08 07:08:22;;;;;;;6.90;2.75;;;22.60;99.90;;;;;;4947885;28;20557;-73
2022/06/08 07:14:17;;;;;;;5.00;2.67;;;22.50;99.90;;;;;;4948194;28;20212;-75
2022/06/08 07:17:02;;;;;;;4.63;2.33;;;22.70;99.90;;;;;;4939524;28;20260;-74
2022/06/08 07:19:46;;;;;;;4.22;2.65;;;22.70;99.90;;;;;;4941080;28;20213;-74
2022/06/08 07:22:30;;;;;;;5.78;2.60;;;22.60;99.90;;;;;;4950776;28;20231;-74
2022/06/08 07:24:56;;;;;;;3.45;2.08;;;22.50;99.90;;;;;;4949440;28;20206;-73
2022/06/08 07:27:24;;;;;;;8.15;2.10;;;22.90;99.90;;;;;;4946826;28;20209;-74
2022/06/08 07:29:51;;;;;;;5.85;2.25;;;23.30;99.90;;;;;;4946799;28;20209;-74
2022/06/08 07:32:21;;;;;;;3.63;2.10;;;23.30;99.90;;;;;;4938708;28;20269;-74
2022/06/08 07:34:47;;;;;;;5.10;2.10;;;23.70;99.90;;;;;;4945490;28;20221;-76
2022/06/08 07:37:14;;;;;;;4.07;2.13;;;23.90;99.90;;;;;;4948408;28;20661;-76
2022/06/08 07:39:41;;;;;;;3.15;1.83;;;24.50;99.90;;;;;;4944206;28;20205;-73
2022/06/08 07:42:08;;;;;;;5.03;2.25;;;24.90;99.90;;;;;;4946219;28;20701;-74
2022/06/08 07:44:35;;;;;;;3.72;1.60;;;24.80;99.90;;;;;;4949666;29;20202;-74
2022/06/08 07:47:01;;;;;;;2.30;1.42;;;25.20;99.90;;;;;;4942359;28;20210;-75
2022/06/08 07:49:37;;;;;;;3.35;1.90;;;25.30;99.90;;;;;;4941523;28;20222;-73
2022/06/08 07:52:16;;;;;;;4.10;2.00;;;25.40;99.90;;;;;;4945899;28;20272;-74
2022/06/08 07:54:43;;;;;;;3.53;1.98;;;24.80;99.90;;;;;;4948235;28;20214;-74
2022/06/08 07:57:25;;;;;;;3.70;1.95;;;24.60;99.90;;;;;;4940552;28;20200;-73
2022/06/08 07:59:52;;;;;;;4.53;1.90;;;24.80;99.90;;;;;;4949900;28;20202;-74
2022/06/08 08:02:19;;;;;;;5.75;1.92;;;24.60;99.90;;;;;;4949159;28;20638;-74
2022/06/08 08:04:46;;;;;;;5.60;1.98;;;23.90;99.90;;;;;;4950100;29;20198;-74
2022/06/08 08:07:13;;;;;;;3.33;2.03;;;23.90;99.90;;;;;;4948793;29;20213;-74
2022/06/08 08:09:39;;;;;;;5.05;2.40;;;23.80;99.90;;;;;;4945331;28;20230;-74
2022/06/08 08:12:07;;;;;;;4.50;2.00;;;23.50;99.90;;;;;;4950147;28;20225;-72
2022/06/08 08:14:33;;;;;;;4.30;1.80;;;23.90;99.90;;;;;;4947261;28;20392;-75
2022/06/08 08:17:04;;;;;;;3.50;2.28;;;24.20;99.90;;;;;;4948086;28;20191;-75
2022/06/08 08:19:32;;;;;;;7.53;2.00;;;24.20;99.90;;;;;;4948364;28;20206;-74
2022/06/08 08:22:00;;;;;;;5.38;2.40;;;24.40;99.90;;;;;;4948261;28;20716;-73
2022/06/08 08:24:27;;;;;;;5.70;1.90;;;24.40;99.90;;;;;;4945264;28;20203;-75
2022/06/08 08:26:55;;;;;;;4.03;2.15;;;24.40;99.90;;;;;;4949377;28;20581;-74
2022/06/08 08:29:22;;;;;;;4.63;2.20;;;24.70;99.90;;;;;;4946947;28;20202;-76
2022/06/08 08:31:49;;;;;;;2.85;1.88;;;24.70;99.90;;;;;;4949924;28;20242;-76
2022/06/08 08:34:16;;;;;;;4.55;1.92;;;25.10;99.90;;;;;;4946808;28;20589;-75
2022/06/08 08:36:45;;;;;;;3.90;1.75;;;25.20;99.90;;;;;;4949368;28;20194;-75
2022/06/08 08:39:12;;;;;;;4.03;2.00;;;25.30;99.90;;;;;;4949222;28;20202;-75
2022/06/08 08:44:42;;;;;;;3.47;2.17;;;25.30;99.90;;;;;;4941528;28;20269;-74
2022/06/08 08:47:35;;;;;;;4.05;1.90;;;25.00;99.90;;;;;;4947275;28;20198;-74
2022/06/08 08:50:15;;;;;;;3.55;1.75;;;25.30;99.90;;;;;;4947780;28;20221;-74
2022/06/08 08:53:01;;;;;;;5.22;1.73;;;25.60;99.90;;;;;;4949399;28;20637;-74
2022/06/08 08:55:47;;;;;;;5.40;1.98;;;25.70;99.90;;;;;;4950699;28;20222;-74
2022/06/08 08:58:19;;;;;;;2.47;1.50;;;25.80;99.90;;;;;;4952376;29;20282;-72
2022/06/08 09:00:55;;;;;;;5.03;1.67;;;26.10;99.90;;;;;;4948910;28;20215;-74
2022/06/08 09:03:25;;;;;;;5.63;1.85;;;26.30;99.90;;;;;;4951860;28;20260;-74
2022/06/08 09:06:12;;;;;;;4.88;1.70;;;26.30;99.90;;;;;;4946867;29;20198;-74
2022/06/08 09:08:43;;;;;;;4.22;1.83;;;26.20;99.90;;;;;;4949147;29;20199;-77
2022/06/08 09:11:18;;;;;;;4.53;1.35;;;26.50;99.90;;;;;;4951370;28;20301;-75
2022/06/08 09:13:55;;;;;;;4.00;1.48;;;26.20;99.90;;;;;;4951959;28;20213;-72
2022/06/08 09:16:27;;;;;;;4.78;1.30;;;26.30;99.90;;;;;;4944112;28;20194;-73
2022/06/08 09:18:54;;;;;;;2.92;1.50;;;26.30;99.90;;;;;;4954041;28;20193;-73
2022/06/08 09:21:31;;;;;;;3.20;1.33;;;26.20;99.90;;;;;;4950239;28;20226;-70
2022/06/08 09:24:09;;;;;;;5.30;1.67;;;26.10;99.90;;;;;;4949864;29;20206;-72
2022/06/08 09:26:39;;;;;;;5.88;1.75;;;26.00;99.90;;;;;;4951554;28;20213;-72
2022/06/08 09:29:16;;;;;;;2.50;1.42;;;25.80;99.90;;;;;;4952482;28;20198;-73
2022/06/08 09:31:45;;;;;;;4.80;1.50;;;25.50;99.90;;;;;;4946161;28;20593;-73
2022/06/08 09:34:25;;;;;;;3.00;1.50;;;25.40;99.90;;;;;;4952166;28;20297;-72
2022/06/08 09:37:12;;;;;;;3.95;1.65;;;25.30;99.90;;;;;;4951984;29;20198;-73
2022/06/08 09:39:44;;;;;;;4.47;1.90;;;25.00;99.90;;;;;;4948401;28;20535;-70
2022/06/08 09:42:38;;;;;;;3.60;1.83;;;24.70;99.90;;;;;;4952326;28;20213;-72
2022/06/08 09:45:35;;;;;;;4.20;1.90;;;24.40;99.90;;;;;;4944655;29;20567;-73
2022/06/08 09:51:26;;;;;;;3.03;1.90;;;23.80;99.90;;;;;;4948471;28;20623;-75
2022/06/08 09:54:06;;;;;;;5.10;2.40;;;23.60;99.90;;;;;;4941589;28;21575;-76
2022/06/08 09:56:48;;;;;;;4.93;1.80;;;23.30;99.90;;;;;;4946400;28;20760;-75
2022/06/08 09:59:35;;;;;;;6.65;2.65;;;23.10;99.90;;;;;;4945696;28;20202;-76
2022/06/08 10:02:25;;;;;;;5.22;2.00;;;23.10;99.90;;;;;;4942547;28;20249;-76
2022/06/08 10:05:27;;;;;;;4.68;1.95;;;23.10;99.90;;;;;;4959549;28;20700;-72
2022/06/08 10:08:14;;;;;;;5.43;2.10;;;23.30;99.90;;;;;;4950530;28;20289;-76
2022/06/08 10:10:52;;;;;;;4.20;1.90;;;23.70;99.90;;;;;;4949437;28;20222;-73
2022/06/08 10:13:31;;;;;;;3.30;1.80;;;24.60;99.90;;;;;;4949717;28;20213;-76
2022/06/08 10:16:10;;;;;;;3.47;1.70;;;25.50;99.90;;;;;;4946945;28;20224;-76
2022/06/08 10:18:48;;;;;;;3.28;1.33;;;26.30;99.90;;;;;;4943438;28;20246;-75
2022/06/08 10:21:20;;;;;;;4.15;1.80;;;26.90;99.90;;;;;;4949226;28;20218;-76
2022/06/08 10:23:56;;;;;;;5.38;1.98;;;27.00;99.90;;;;;;4941985;28;20591;-76
2022/06/08 10:26:37;;;;;;;6.00;1.67;;;26.70;99.90;;;;;;4947551;28;20206;-77
2022/06/08 10:29:35;;;;;;;2.95;1.95;;;26.50;99.90;;;;;;4942056;28;20669;-76
2022/06/08 10:32:17;;;;;;;2.67;1.65;;;26.20;99.90;;;;;;4943240;28;20218;-76
2022/06/08 10:34:51;;;;;;;3.70;1.55;;;25.80;99.90;;;;;;4946871;28;20229;-75
2022/06/08 10:37:24;;;;;;;5.93;1.85;;;25.50;99.90;;;;;;4945456;28;20197;-75
2022/06/08 10:39:51;;;;;;;2.63;1.83;;;25.10;99.90;;;;;;4949664;28;20246;-75
2022/06/08 10:42:42;;;;;;;3.28;1.65;;;24.60;99.90;;;;;;4943411;28;20230;-76
2022/06/08 10:45:26;;;;;;;3.55;1.50;;;24.20;99.90;;;;;;4942574;29;20576;-76
2022/06/08 10:48:01;;;;;;;6.45;2.08;;;23.90;99.90;;;;;;4948814;28;20258;-78
2022/06/08 10:50:32;;;;;;;4.72;2.15;;;23.70;99.90;;;;;;4944827;28;20229;-78
2022/06/08 10:56:28;;;;;;;4.85;1.70;;;23.40;99.90;;;;;;4946877;28;20198;-73
2022/06/08 10:59:07;;;;;;;5.10;1.55;;;23.10;99.90;;;;;;4946627;28;20209;-75
2022/06/08 11:02:01;;;;;;;3.75;1.77;;;23.00;99.90;;;;;;4944541;28;20229;-74
2022/06/08 11:04:36;;;;;;;3.83;1.40;;;22.90;99.90;;;;;;4946837;29;20208;-76
2022/06/08 11:07:10;;;;;;;3.60;1.55;;;22.90;99.90;;;;;;4941214;28;20205;-76
2022/06/08 11:09:37;;;;;;;3.58;1.40;;;22.90;99.90;;;;;;4938834;28;20209;-76
2022/06/08 11:12:20;;;;;;;2.75;1.50;;;22.90;99.90;;;;;;4946289;28;20218;-75
2022/06/08 11:14:47;;;;;;;3.78;1.58;;;23.10;99.90;;;;;;4944793;28;20232;-76
2022/06/08 11:17:29;;;;;;;2.30;1.40;;;23.40;99.90;;;;;;4944515;29;20359;-76
2022/06/08 11:20:14;;;;;;;2.80;1.23;;;23.80;99.90;;;;;;4947583;28;20202;-75
2022/06/08 11:22:55;;;;;;;2.13;1.30;;;24.00;99.90;;;;;;4942229;29;20213;-75
2022/06/08 11:25:30;;;;;;;2.65;1.50;;;24.10;99.90;;;;;;4943199;28;20209;-75
2022/06/08 11:28:24;;;;;;;6.65;1.60;;;24.20;99.90;;;;;;4948547;28;20197;-75
2022/06/08 11:30:53;;;;;;;3.75;1.58;;;24.20;99.90;;;;;;4939171;28;20221;-73
2022/06/08 11:33:21;;;;;;;4.07;1.48;;;24.00;99.90;;;;;;4943348;29;20665;-76
2022/06/08 11:36:06;;;;;;;6.10;1.80;;;23.90;99.90;;;;;;4943617;28;20218;-76
2022/06/08 11:39:18;;;;;;;3.67;1.40;;;23.60;99.90;;;;;;4943034;28;20895;-75
2022/06/08 11:41:57;;;;;;;4.90;1.60;;;23.40;99.90;;;;;;4884377;29;20224;-76
2022/06/08 11:44:31;;;;;;;2.83;1.63;;;23.20;99.90;;;;;;4889384;29;20204;-75
2022/06/08 11:47:09;;;;;;;4.18;1.80;;;23.10;99.90;;;;;;4925252;29;20195;-76
2022/06/08 11:49:42;;;;;;;3.92;1.40;;;23.00;99.90;;;;;;4948448;29;20206;-74
2022/06/08 11:52:25;;;;;;;4.53;1.75;;;23.00;99.90;;;;;;4945342;28;20225;-79
2022/06/08 11:55:11;;;;;;;5.13;1.52;;;23.20;99.90;;;;;;4949073;28;20633;-73
2022/06/08 11:57:58;;;;;;;3.88;1.58;;;23.40;99.90;;;;;;4937715;28;20213;-77
2022/06/08 12:00:33;;;;;;;4.35;1.50;;;23.50;99.90;;;;;;4947954;28;20222;-74
2022/06/08 12:03:18;;;;;;;3.15;1.60;;;23.60;99.90;;;;;;4946018;28;20754;-75
2022/06/08 12:05:53;;;;;;;5.82;1.80;;;23.50;99.90;;;;;;4948081;29;20753;-75
2022/06/08 12:08:37;;;;;;;3.33;1.50;;;23.50;99.90;;;;;;4943854;28;20198;-76
2022/06/08 12:11:23;;;;;;;3.53;1.35;;;23.40;99.90;;;;;;4942003;28;20717;-75
2022/06/08 12:14:14;;;;;;;3.85;1.33;;;23.20;99.90;;;;;;4945350;29;20198;-75
2022/06/08 12:17:10;;;;;;;3.88;1.20;;;23.20;99.90;;;;;;4940987;29;20737;-75
2022/06/08 12:19:46;;;;;;;3.42;1.20;;;23.10;99.90;;;;;;4945456;28;20289;-75
2022/06/08 12:22:25;;;;;;;1.58;1.00;;;23.10;99.90;;;;;;4947849;28;20236;-74
2022/06/08 12:25:21;;;;;;;3.28;1.10;;;23.10;99.90;;;;;;4945011;28;20202;-75
2022/06/08 12:27:55;;;;;;;6.93;1.80;;;23.10;99.90;;;;;;4946417;28;20206;-75
2022/06/08 12:30:32;;;;;;;4.32;1.40;;;23.20;99.90;;;;;;4952148;28;20221;-74
2022/06/08 12:33:01;;;;;;;5.20;1.60;;;23.40;99.90;;;;;;4950772;28;20285;-74
2022/06/08 12:35:38;;;;;;;2.50;1.13;;;23.50;99.90;;;;;;4943849;28;20222;-75
2022/06/08 12:38:16;;;;;;;2.15;1.20;;;23.40;99.90;;;;;;4942521;28;20202;-74
2022/06/08 12:41:10;;;;;;;3.90;1.30;;;23.50;99.90;;;;;;4951144;28;20229;-74
2022/06/08 12:43:50;;;;;;;3.85;1.27;;;23.50;99.90;;;;;;4942365;28;20194;-74
2022/06/08 12:46:31;;;;;;;2.60;1.02;;;23.50;99.90;;;;;;4944103;29;20206;-75
2022/06/08 12:49:14;;;;;;;3.60;1.15;;;23.60;99.90;;;;;;4943528;28;20194;-74
2022/06/08 12:51:48;;;;;;;2.92;1.20;;;23.60;99.90;;;;;;4943833;28;20229;-74
2022/06/08 12:54:31;;;;;;;4.28;1.48;;;23.70;99.90;;;;;;4946643;28;20198;-74
2022/06/08 12:57:19;;;;;;;1.88;1.40;;;23.90;99.90;;;;;;4947227;28;20574;-74
2022/06/08 12:59:49;;;;;;;2.80;1.20;;;24.00;99.90;;;;;;4948608;28;20202;-73
2022/06/08 13:02:19;;;;;;;5.35;1.77;;;23.80;99.90;;;;;;4945425;28;20860;-76
2022/06/08 13:04:48;;;;;;;3.90;1.67;;;23.60;99.90;;;;;;4948937;29;20203;-76
2022/06/08 13:07:30;;;;;;;3.63;1.83;;;23.40;99.90;;;;;;4947381;28;20775;-75
2022/06/08 13:09:58;;;;;;;4.32;1.00;;;23.40;99.90;;;;;;4942250;28;20211;-75
2022/06/08 13:12:32;;;;;;;2.80;1.10;;;23.30;99.90;;;;;;4950054;28;20202;-75
2022/06/08 13:14:59;;;;;;;2.97;1.00;;;23.30;99.90;;;;;;4950391;28;20604;-75
2022/06/08 13:17:28;;;;;;;2.45;1.20;;;23.10;99.90;;;;;;4948305;28;20201;-75
2022/06/08 13:19:59;;;;;;;2.08;0.98;;;22.80;99.90;;;;;;4952584;28;20190;-74
2022/06/08 13:22:26;;;;;;;2.08;1.10;;;22.70;99.90;;;;;;4947540;28;20646;-76
2022/06/08 13:24:53;;;;;;;4.97;1.23;;;22.50;99.90;;;;;;4947878;28;20214;-74
2022/06/08 13:27:20;;;;;;;3.42;1.25;;;22.50;99.90;;;;;;4944175;28;20205;-75
2022/06/08 13:29:47;;;;;;;3.45;1.40;;;22.40;99.90;;;;;;4948990;28;20217;-74
2022/06/08 13:32:21;;;;;;;2.67;1.23;;;22.30;99.90;;;;;;4952475;28;20698;-75
2022/06/08 13:34:48;;;;;;;3.40;1.55;;;22.10;99.90;;;;;;4945620;28;20218;-75
2022/06/08 13:37:41;;;;;;;2.83;1.33;;;22.00;99.90;;;;;;4946595;28;20189;-74
2022/06/08 13:40:25;;;;;;;3.15;1.30;;;21.60;99.90;;;;;;4966038;28;20216;-75
2022/06/08 13:42:53;;;;;;;4.10;1.60;;;21.30;99.90;;;;;;4951021;29;20244;-74
2022/06/08 13:45:24;;;;;;;2.65;1.30;;;21.00;99.90;;;;;;4943678;28;20221;-74
2022/06/08 13:48:05;;;;;;;2.75;1.70;;;21.00;99.90;;;;;;4954056;28;20199;-74
2022/06/08 13:50:36;;;;;;;5.80;1.95;;;21.10;99.90;;;;;;4949911;28;20226;-75
2022/06/08 13:53:05;;;;;;;5.63;2.53;;;21.10;99.90;;;;;;4942876;28;20210;-74
2022/06/08 13:55:37;;;;;;;5.35;2.00;;;21.20;99.90;;;;;;4949365;28;20568;-75
2022/06/08 13:58:07;;;;;;;5.28;1.92;;;21.30;99.90;;;;;;4943561;28;20202;-74
2022/06/08 14:00:47;;;;;;;8.07;2.17;;;21.50;99.90;;;;;;4946159;28;20229;-74
2022/06/08 14:03:38;;;;;;;6.72;1.92;;;21.40;99.90;;;;;;4941084;28;20206;-75
2022/06/08 14:14:52;;;;;;;3.42;1.83;;;19.80;99.90;;;;;;4939242;28;20506;-73
2022/06/08 14:17:21;;;;;;;8.55;2.05;;;19.30;99.90;;;;;;4947032;28;20206;-74
2022/06/08 14:19:52;;;;;;;4.80;2.10;;;19.10;99.90;;;;;;4939683;28;20577;-73
2022/06/08 14:22:24;;;;;;;4.27;2.17;;;18.90;99.90;;;;;;4945324;29;20206;-73
2022/06/08 14:24:55;;;;;;;5.77;2.13;;;18.80;99.90;;;;;;4949005;28;20198;-72
2022/06/08 14:27:22;;;;;;;8.30;2.53;;;18.80;99.90;;;;;;4948247;28;20206;-73
2022/06/08 14:29:49;;;;;;;7.23;2.20;;;18.70;99.90;;;;;;4954087;28;20199;-73
2022/06/08 14:32:26;;;;;;;5.23;2.20;;;18.60;99.90;;;;;;4944612;28;20227;-77
2022/06/08 14:34:53;;;;;;;4.43;2.27;;;18.50;99.90;;;;;;4945166;28;20320;-76
2022/06/08 14:37:21;;;;;;;9.43;2.60;;;18.40;99.90;;;;;;4943529;28;20759;-76
2022/06/08 14:39:48;;;;;;;5.90;2.50;;;18.40;99.90;;;;;;4942284;28;20587;-75
2022/06/08 14:42:15;;;;;;;8.00;2.63;;;18.40;99.90;;;;;;4943942;28;20218;-74
2022/06/08 14:44:42;;;;;;;8.03;2.30;;;18.50;99.90;;;;;;4940753;28;20669;-75
2022/06/08 14:47:26;;;;;;;8.40;2.77;;;18.60;99.90;;;;;;4943683;28;20191;-75
2022/06/08 14:49:54;;;;;;;6.03;2.00;;;18.70;99.90;;;;;;4962103;28;20199;-78
2022/06/08 14:52:24;;;;;;;8.13;2.87;;;18.90;99.90;;;;;;4948124;28;20209;-75
2022/06/08 14:54:51;;;;;;;6.03;2.35;;;19.20;99.90;;;;;;4940597;28;20553;-74
2022/06/08 14:57:34;;;;;;;9.50;2.50;;;19.50;99.90;;;;;;4945987;29;20657;-77
2022/06/08 15:00:12;;;;;;;5.25;2.17;;;19.60;99.90;;;;;;4945003;28;20190;-76
2022/06/08 15:02:39;;;;;;;4.50;2.13;;;19.70;99.90;;;;;;4944467;28;20194;-75
2022/06/08 15:05:07;;;;;;;7.97;2.57;;;19.40;99.90;;;;;;4945862;28;20195;-75
2022/06/08 15:07:35;;;;;;;7.20;2.23;;;19.00;99.90;;;;;;4943536;28;20215;-75
2022/06/08 15:10:05;;;;;;;4.87;2.30;;;18.80;99.90;;;;;;4940919;28;20205;-74
2022/06/08 15:12:33;;;;;;;5.70;2.10;;;18.60;99.90;;;;;;4939302;28;20206;-75
2022/06/08 15:15:15;;;;;;;8.97;2.90;;;18.20;99.90;;;;;;4946236;28;20234;-74
2022/06/08 15:17:45;;;;;;;5.20;2.57;;;18.00;99.90;;;;;;4944400;28;20204;-75
2022/06/08 15:20:25;;;;;;;7.03;2.67;;;17.80;99.90;;;;;;4943285;28;20194;-76
2022/06/08 15:22:55;;;;;;;4.50;2.17;;;17.80;99.90;;;;;;4946937;29;20202;-76
2022/06/08 15:25:28;;;;;;;5.03;2.70;;;17.70;99.90;;;;;;4943029;28;20246;-74
2022/06/08 15:27:59;;;;;;;3.47;2.40;;;17.80;99.90;;;;;;4947119;28;20543;-73
2022/06/08 15:30:31;;;;;;;4.23;2.30;;;17.90;99.90;;;;;;4947068;28;20222;-75
2022/06/08 15:32:58;;;;;;;3.23;2.10;;;17.90;99.90;;;;;;4946344;28;20677;-75
2022/06/08 15:35:25;;;;;;;4.53;2.47;;;17.90;99.90;;;;;;4942895;28;20237;-75
2022/06/08 15:37:54;;;;;;;4.73;2.43;;;18.00;99.90;;;;;;4942107;28;20198;-74
2022/06/08 15:40:28;;;;;;;4.37;2.20;;;18.20;99.90;;;;;;4943341;28;20302;-74
2022/06/08 15:42:55;;;;;;;5.10;2.27;;;18.30;99.90;;;;;;4947767;29;20201;-76
2022/06/08 15:45:22;;;;;;;5.63;2.20;;;18.40;99.90;;;;;;4948630;28;20678;-75
2022/06/08 15:48:10;;;;;;;5.33;2.13;;;18.50;99.90;;;;;;4940750;28;20296;-77
2022/06/08 15:50:50;;;;;;;4.60;2.17;;;18.70;99.90;;;;;;4938647;28;20458;-77
2022/06/08 15:53:29;;;;;;;3.83;2.10;;;18.90;99.90;;;;;;4940520;28;20604;-77
2022/06/08 15:55:55;;;;;;;5.97;2.00;;;18.90;99.90;;;;;;4940907;28;20716;-76
2022/06/08 15:58:25;;;;;;;5.30;2.23;;;19.00;99.90;;;;;;4945831;28;20207;-75
2022/06/08 16:00:53;;;;;;;4.43;2.30;;;19.00;99.90;;;;;;4943389;28;20720;-74
2022/06/08 16:03:20;;;;;;;5.93;1.90;;;18.90;99.90;;;;;;4951056;28;20210;-75
2022/06/08 16:05:47;;;;;;;3.67;2.30;;;19.00;99.90;;;;;;4951328;28;20217;-76
2022/06/08 16:08:14;;;;;;;7.10;3.33;;;19.00;99.90;;;;;;4949450;28;20206;-79
2022/06/08 16:10:41;;;;;;;4.45;2.20;;;19.00;99.90;;;;;;4949924;28;20762;-77
2022/06/08 16:13:12;;;;;;;4.53;2.50;;;19.00;99.90;;;;;;4956821;28;20205;-75
2022/06/08 16:15:40;;;;;;;5.17;2.53;;;19.00;99.90;;;;;;4943027;28;20221;-74
2022/06/08 16:18:06;;;;;;;4.13;2.28;;;19.10;99.90;;;;;;4947063;28;20577;-75
2022/06/08 16:20:34;;;;;;;6.23;2.90;;;19.20;99.90;;;;;;4949436;28;20218;-74
2022/06/08 16:23:03;;;;;;;6.07;2.67;;;19.20;99.90;;;;;;4948859;28;20206;-74
2022/06/08 16:25:30;;;;;;;4.35;2.47;;;19.10;99.90;;;;;;4943885;28;20502;-74
2022/06/08 16:27:57;;;;;;;5.20;2.40;;;19.20;99.90;;;;;;4954093;29;20247;-74
2022/06/08 16:30:28;;;;;;;3.00;2.07;;;19.20;99.90;;;;;;4949906;28;20278;-74
2022/06/08 16:32:55;;;;;;;3.13;2.10;;;19.20;99.90;;;;;;4951236;28;20206;-74
2022/06/08 16:35:22;;;;;;;4.90;2.40;;;19.10;99.90;;;;;;4950116;28;20704;-74
2022/06/08 16:37:52;;;;;;;3.43;2.47;;;19.10;99.90;;;;;;4948369;29;20194;-74
2022/06/08 16:40:22;;;;;;;4.57;2.53;;;19.10;99.90;;;;;;4949898;28;20218;-74
2022/06/08 16:42:51;;;;;;;4.67;2.47;;;19.10;99.90;;;;;;4949162;28;20221;-74
2022/06/08 16:45:21;;;;;;;7.50;2.80;;;19.20;99.90;;;;;;4944350;28;20194;-74
2022/06/08 16:47:49;;;;;;;3.77;2.50;;;19.20;99.90;;;;;;4947184;28;20201;-75
2022/06/08 16:50:16;;;;;;;6.70;2.50;;;19.10;99.90;;;;;;4947697;28;20301;-75
2022/06/08 16:52:43;;;;;;;5.00;3.07;;;19.20;99.90;;;;;;4952464;29;20198;-75
2022/06/08 16:55:09;;;;;;;5.77;2.30;;;19.30;99.90;;;;;;4941891;28;20194;-75
2022/06/08 17:00:21;;;;;;;3.40;2.10;;;19.20;99.90;;;;;;4954640;28;20229;-74
2022/06/08 17:02:48;;;;;;;4.83;2.73;;;19.00;99.90;;;;;;4945109;28;20207;-71
2022/06/08 17:05:15;;;;;;;5.07;2.50;;;19.00;99.90;;;;;;4953911;29;20198;-76
2022/06/08 17:07:42;;;;;;;3.50;1.80;;;18.90;99.90;;;;;;4951554;29;20210;-74
2022/06/08 17:10:10;;;;;;;5.77;2.03;;;18.80;99.90;;;;;;4950917;29;20203;-75
2022/06/08 17:12:37;;;;;;;4.37;2.13;;;18.90;99.90;;;;;;4945367;28;20229;-75
2022/06/08 17:15:04;;;;;;;3.90;2.13;;;18.90;99.90;;;;;;4951787;29;20202;-76
2022/06/08 17:17:32;;;;;;;4.17;2.03;;;18.90;99.90;;;;;;4947541;28;20622;-74
2022/06/08 17:19:59;;;;;;;4.73;2.10;;;18.80;99.90;;;;;;4952392;28;20206;-74
2022/06/08 17:22:26;;;;;;;3.03;1.90;;;18.80;99.90;;;;;;4949155;28;20209;-74
2022/06/08 17:24:53;;;;;;;2.37;1.83;;;18.70;99.90;;;;;;4953910;29;20210;-75
2022/06/08 17:27:20;;;;;;;4.17;2.00;;;18.80;99.90;;;;;;4945202;28;20199;-74
2022/06/08 17:29:47;;;;;;;4.83;2.27;;;18.70;99.90;;;;;;4952436;28;20205;-73
2022/06/08 17:32:14;;;;;;;5.17;2.60;;;18.60;99.90;;;;;;4949778;28;20601;-76
2022/06/08 17:34:41;;;;;;;5.57;2.40;;;18.50;99.90;;;;;;4948780;28;20203;-74
2022/06/08 17:37:08;;;;;;;3.63;1.73;;;18.40;99.90;;;;;;4950166;28;20221;-74
2022/06/08 17:39:36;;;;;;;4.20;2.10;;;18.30;99.90;;;;;;4949268;28;20673;-73
2022/06/08 17:42:22;;;;;;;4.93;2.10;;;18.40;99.90;;;;;;4948411;28;20246;-76
2022/06/08 17:44:56;;;;;;;3.07;2.13;;;18.30;99.90;;;;;;4945637;28;20277;-75
2022/06/08 17:47:25;;;;;;;2.73;1.80;;;18.30;99.90;;;;;;4947790;28;20209;-74
2022/06/08 17:49:52;;;;;;;6.37;2.00;;;18.30;99.90;;;;;;4948207;29;21112;-73
2022/06/08 17:52:24;;;;;;;4.70;2.40;;;18.30;99.90;;;;;;4947194;28;20222;-73
2022/06/08 17:54:51;;;;;;;3.57;2.13;;;18.20;99.90;;;;;;4950728;28;20198;-74
2022/06/08 17:57:23;;;;;;;4.87;2.20;;;18.10;99.90;;;;;;4950640;28;20752;-75
2022/06/08 17:59:51;;;;;;;4.47;2.37;;;18.10;99.90;;;;;;4950448;28;20198;-75
2022/06/08 18:02:18;;;;;;;4.13;2.10;;;18.10;99.90;;;;;;4953273;28;20199;-77
2022/06/08 18:04:45;;;;;;;2.87;2.10;;;18.00;99.90;;;;;;4945708;28;20198;-73
2022/06/08 18:07:12;;;;;;;4.90;2.23;;;18.00;99.90;;;;;;4945494;28;20690;-74
2022/06/08 18:09:41;;;;;;;3.83;2.40;;;18.00;99.90;;;;;;4950694;29;20681;-73